sensor_id;sensor_type;location;lat;lon;timestamp;temperature;humidity
32522;DHT22;18963;51.504;5.316;2022-12-04T00:00:06;1.10;99.90
32522;DHT22;18963;51.504;5.316;2022-12-04T00:02:33;1.10;99.90
32522;DHT22;18963;51.504;5.316;2022-12-04T00:04:58;1.10;99.90
32522;DHT22;18963;51.504;5.316;2022-12-04T00:07:24;1.00;99.90
32522;DHT22;18963;51.504;5.316;2022-12-04T00:09:49;1.00;99.90
32522;DHT22;18963;51.504;5.316;2022-12-04T00:12:15;1.00;99.90
32522;DHT22;18963;51.504;5.316;2022-12-04T00:14:40;1.00;99.90
32522;DHT22;18963;51.504;5.316;2022-12-04T00:17:06;1.00;99.90
32522;DHT22;18963;51.504;5.316;2022-12-04T00:19:31;1.00;99.90
32522;DHT22;18963;51.504;5.316;2022-12-04T00:21:56;1.00;99.90
32522;DHT22;18963;51.504;5.316;2022-12-04T00:24:22;1.00;99.90
32522;DHT22;18963;51.504;5.316;2022-12-04T00:26:47;1.00;99.90
32522;DHT22;18963;51.504;5.316;2022-12-04T00:29:13;1.00;99.90
32522;DHT22;18963;51.504;5.316;2022-12-04T00:31:38;1.00;99.90
32522;DHT22;18963;51.504;5.316;2022-12-04T00:34:04;1.00;99.90
32522;DHT22;18963;51.504;5.316;2022-12-04T00:36:29;1.00;99.90
32522;DHT22;18963;51.504;5.316;2022-12-04T00:38:55;1.00;99.90
32522;DHT22;18963;51.504;5.316;2022-12-04T00:41:23;1.00;99.90
32522;DHT22;18963;51.504;5.316;2022-12-04T00:43:49;1.00;99.90
32522;DHT22;18963;51.504;5.316;2022-12-04T00:46:15;1.00;99.90
32522;DHT22;18963;51.504;5.316;2022-12-04T00:48:41;1.00;99.90
32522;DHT22;18963;51.504;5.316;2022-12-04T00:51:08;1.00;99.90
32522;DHT22;18963;51.504;5.316;2022-12-04T00:53:34;1.10;99.90
32522;DHT22;18963;51.504;5.316;2022-12-04T00:56:06;1.10;99.90
32522;DHT22;18963;51.504;5.316;2022-12-04T00:58:32;1.10;99.90
32522;DHT22;18963;51.504;5.316;2022-12-04T01:01:05;1.10;99.90
32522;DHT22;18963;51.504;5.316;2022-12-04T01:03:31;1.10;99.90
32522;DHT22;18963;51.504;5.316;2022-12-04T01:05:57;1.10;99.90
32522;DHT22;18963;51.504;5.316;2022-12-04T01:08:22;1.10;99.90
32522;DHT22;18963;51.504;5.316;2022-12-04T01:10:48;1.10;99.90
32522;DHT22;18963;51.504;5.316;2022-12-04T01:13:13;1.00;99.90
32522;DHT22;18963;51.504;5.316;2022-12-04T01:15:39;1.00;99.90
32522;DHT22;18963;51.504;5.316;2022-12-04T01:18:06;1.00;99.90
32522;DHT22;18963;51.504;5.316;2022-12-04T01:20:32;1.00;99.90
32522;DHT22;18963;51.504;5.316;2022-12-04T01:22:57;1.10;99.90
32522;DHT22;18963;51.504;5.316;2022-12-04T01:25:23;1.10;99.90
32522;DHT22;18963;51.504;5.316;2022-12-04T01:27:48;1.10;99.90
32522;DHT22;18963;51.504;5.316;2022-12-04T01:30:14;1.10;99.90
32522;DHT22;18963;51.504;5.316;2022-12-04T01:32:39;1.00;99.90
32522;DHT22;18963;51.504;5.316;2022-12-04T01:35:05;1.10;99.90
32522;DHT22;18963;51.504;5.316;2022-12-04T01:37:30;1.10;99.90
32522;DHT22;18963;51.504;5.316;2022-12-04T01:39:56;1.00;99.90
32522;DHT22;18963;51.504;5.316;2022-12-04T01:42:22;1.10;99.90
32522;DHT22;18963;51.504;5.316;2022-12-04T01:45:36;1.10;99.90
32522;DHT22;18963;51.504;5.316;2022-12-04T01:47:33;1.00;99.90
32522;DHT22;18963;51.504;5.316;2022-12-04T01:49:58;1.10;99.90
32522;DHT22;18963;51.504;5.316;2022-12-04T01:52:24;1.10;99.90
32522;DHT22;18963;51.504;5.316;2022-12-04T01:54:54;1.10;99.90
32522;DHT22;18963;51.504;5.316;2022-12-04T01:57:22;1.10;99.90
32522;DHT22;18963;51.504;5.316;2022-12-04T01:59:49;1.10;99.90
32522;DHT22;18963;51.504;5.316;2022-12-04T02:02:16;1.10;99.90
32522;DHT22;18963;51.504;5.316;2022-12-04T02:04:43;1.10;99.90
32522;DHT22;18963;51.504;5.316;2022-12-04T02:07:09;1.00;99.90
32522;DHT22;18963;51.504;5.316;2022-12-04T02:09:36;1.00;99.90
32522;DHT22;18963;51.504;5.316;2022-12-04T02:12:20;1.10;99.90
32522;DHT22;18963;51.504;5.316;2022-12-04T02:17:37;1.10;99.90
32522;DHT22;18963;51.504;5.316;2022-12-04T02:25:27;1.00;99.90
32522;DHT22;18963;51.504;5.316;2022-12-04T02:30:22;1.00;99.90
32522;DHT22;18963;51.504;5.316;2022-12-04T02:32:51;1.00;99.90
32522;DHT22;18963;51.504;5.316;2022-12-04T02:35:20;1.10;99.90
32522;DHT22;18963;51.504;5.316;2022-12-04T02:40:50;1.00;99.90
32522;DHT22;18963;51.504;5.316;2022-12-04T02:43:26;1.10;99.90
32522;DHT22;18963;51.504;5.316;2022-12-04T02:48:21;1.10;99.90
32522;DHT22;18963;51.504;5.316;2022-12-04T02:50:49;1.00;99.90
32522;DHT22;18963;51.504;5.316;2022-12-04T02:53:19;1.10;99.90
32522;DHT22;18963;51.504;5.316;2022-12-04T02:55:48;1.10;99.90
32522;DHT22;18963;51.504;5.316;2022-12-04T02:58:15;1.10;99.90
32522;DHT22;18963;51.504;5.316;2022-12-04T03:00:42;1.10;99.90
32522;DHT22;18963;51.504;5.316;2022-12-04T03:03:10;1.10;99.90
32522;DHT22;18963;51.504;5.316;2022-12-04T03:08:05;1.10;99.90
32522;DHT22;18963;51.504;5.316;2022-12-04T03:10:33;1.10;99.90
32522;DHT22;18963;51.504;5.316;2022-12-04T03:13:05;1.00;99.90
32522;DHT22;18963;51.504;5.316;2022-12-04T03:15:33;1.00;99.90
32522;DHT22;18963;51.504;5.316;2022-12-04T03:18:02;1.00;99.90
32522;DHT22;18963;51.504;5.316;2022-12-04T03:20:29;1.00;99.90
32522;DHT22;18963;51.504;5.316;2022-12-04T03:23:01;1.10;99.90
32522;DHT22;18963;51.504;5.316;2022-12-04T03:25:31;1.10;99.90
32522;DHT22;18963;51.504;5.316;2022-12-04T03:27:59;1.00;99.90
32522;DHT22;18963;51.504;5.316;2022-12-04T03:30:25;1.00;99.90
32522;DHT22;18963;51.504;5.316;2022-12-04T03:32:55;1.00;99.90
32522;DHT22;18963;51.504;5.316;2022-12-04T03:37:54;1.10;99.90
32522;DHT22;18963;51.504;5.316;2022-12-04T03:42:47;1.00;99.90
32522;DHT22;18963;51.504;5.316;2022-12-04T03:45:16;1.00;99.90
32522;DHT22;18963;51.504;5.316;2022-12-04T03:50:20;1.10;99.90
32522;DHT22;18963;51.504;5.316;2022-12-04T03:57:46;1.10;99.90
32522;DHT22;18963;51.504;5.316;2022-12-04T04:00:14;1.10;99.90
32522;DHT22;18963;51.504;5.316;2022-12-04T04:02:51;1.10;99.90
32522;DHT22;18963;51.504;5.316;2022-12-04T04:05:17;1.10;99.90
32522;DHT22;18963;51.504;5.316;2022-12-04T04:07:48;1.10;99.90
32522;DHT22;18963;51.504;5.316;2022-12-04T04:10:17;1.10;99.90
32522;DHT22;18963;51.504;5.316;2022-12-04T04:12:44;1.10;99.90
32522;DHT22;18963;51.504;5.316;2022-12-04T04:15:31;1.10;99.90
32522;DHT22;18963;51.504;5.316;2022-12-04T04:18:16;1.10;99.90
32522;DHT22;18963;51.504;5.316;2022-12-04T04:21:00;1.10;99.90
32522;DHT22;18963;51.504;5.316;2022-12-04T04:23:58;1.10;99.90
32522;DHT22;18963;51.504;5.316;2022-12-04T04:26:41;1.10;99.90
32522;DHT22;18963;51.504;5.316;2022-12-04T04:29:08;1.10;99.90
32522;DHT22;18963;51.504;5.316;2022-12-04T04:31:38;1.10;99.90
32522;DHT22;18963;51.504;5.316;2022-12-04T04:36:42;1.10;99.90
32522;DHT22;18963;51.504;5.316;2022-12-04T04:41:44;1.10;99.90
32522;DHT22;18963;51.504;5.316;2022-12-04T04:44:16;1.10;99.90
32522;DHT22;18963;51.504;5.316;2022-12-04T04:46:51;1.10;99.90
32522;DHT22;18963;51.504;5.316;2022-12-04T04:49:18;1.00;99.90
32522;DHT22;18963;51.504;5.316;2022-12-04T04:51:46;1.10;99.90
32522;DHT22;18963;51.504;5.316;2022-12-04T04:54:12;1.10;99.90
32522;DHT22;18963;51.504;5.316;2022-12-04T04:56:39;1.10;99.90
32522;DHT22;18963;51.504;5.316;2022-12-04T04:59:04;1.10;99.90
32522;DHT22;18963;51.504;5.316;2022-12-04T05:01:30;1.10;99.90
32522;DHT22;18963;51.504;5.316;2022-12-04T05:03:55;1.10;99.90
32522;DHT22;18963;51.504;5.316;2022-12-04T05:06:21;1.10;99.90
32522;DHT22;18963;51.504;5.316;2022-12-04T05:08:46;1.10;99.90
32522;DHT22;18963;51.504;5.316;2022-12-04T05:11:14;1.10;99.90
32522;DHT22;18963;51.504;5.316;2022-12-04T05:13:39;1.20;99.90
32522;DHT22;18963;51.504;5.316;2022-12-04T05:16:06;1.10;99.90
32522;DHT22;18963;51.504;5.316;2022-12-04T05:18:32;1.10;99.90
32522;DHT22;18963;51.504;5.316;2022-12-04T05:20:58;1.20;99.90
32522;DHT22;18963;51.504;5.316;2022-12-04T05:23:23;1.10;99.90
32522;DHT22;18963;51.504;5.316;2022-12-04T05:25:49;1.10;99.90
32522;DHT22;18963;51.504;5.316;2022-12-04T05:28:14;1.20;99.90
32522;DHT22;18963;51.504;5.316;2022-12-04T05:30:40;1.20;99.90
32522;DHT22;18963;51.504;5.316;2022-12-04T05:33:06;1.20;99.90
32522;DHT22;18963;51.504;5.316;2022-12-04T05:35:31;1.20;99.90
32522;DHT22;18963;51.504;5.316;2022-12-04T05:37:57;1.10;99.90
32522;DHT22;18963;51.504;5.316;2022-12-04T05:40:22;1.20;99.90
32522;DHT22;18963;51.504;5.316;2022-12-04T05:42:47;1.20;99.90
32522;DHT22;18963;51.504;5.316;2022-12-04T05:45:13;1.10;99.90
32522;DHT22;18963;51.504;5.316;2022-12-04T05:47:39;1.10;99.90
32522;DHT22;18963;51.504;5.316;2022-12-04T05:50:05;1.20;99.90
32522;DHT22;18963;51.504;5.316;2022-12-04T05:52:31;1.20;99.90
32522;DHT22;18963;51.504;5.316;2022-12-04T05:54:56;1.20;99.90
32522;DHT22;18963;51.504;5.316;2022-12-04T05:57:22;1.10;99.90
32522;DHT22;18963;51.504;5.316;2022-12-04T05:59:49;1.10;99.90
32522;DHT22;18963;51.504;5.316;2022-12-04T06:02:14;1.10;99.90
32522;DHT22;18963;51.504;5.316;2022-12-04T06:04:40;1.10;99.90
32522;DHT22;18963;51.504;5.316;2022-12-04T06:07:05;1.10;99.90
32522;DHT22;18963;51.504;5.316;2022-12-04T06:09:31;1.10;99.90
32522;DHT22;18963;51.504;5.316;2022-12-04T06:11:56;1.10;99.90
32522;DHT22;18963;51.504;5.316;2022-12-04T06:14:22;1.10;99.90
32522;DHT22;18963;51.504;5.316;2022-12-04T06:16:48;1.10;99.90
32522;DHT22;18963;51.504;5.316;2022-12-04T06:19:14;1.10;99.90
32522;DHT22;18963;51.504;5.316;2022-12-04T06:21:41;1.20;99.90
32522;DHT22;18963;51.504;5.316;2022-12-04T06:24:07;1.10;99.90
32522;DHT22;18963;51.504;5.316;2022-12-04T06:26:34;1.20;99.90
32522;DHT22;18963;51.504;5.316;2022-12-04T06:29:00;1.10;99.90
32522;DHT22;18963;51.504;5.316;2022-12-04T06:31:26;1.20;99.90
32522;DHT22;18963;51.504;5.316;2022-12-04T06:33:52;1.10;99.90
32522;DHT22;18963;51.504;5.316;2022-12-04T06:36:18;1.20;99.90
32522;DHT22;18963;51.504;5.316;2022-12-04T06:38:45;1.20;99.90
32522;DHT22;18963;51.504;5.316;2022-12-04T06:41:11;1.20;99.90
32522;DHT22;18963;51.504;5.316;2022-12-04T06:43:37;1.20;99.90
32522;DHT22;18963;51.504;5.316;2022-12-04T06:46:04;1.20;99.90
32522;DHT22;18963;51.504;5.316;2022-12-04T06:48:30;1.20;99.90
32522;DHT22;18963;51.504;5.316;2022-12-04T06:53:24;1.20;99.90
32522;DHT22;18963;51.504;5.316;2022-12-04T06:55:52;1.20;99.90
32522;DHT22;18963;51.504;5.316;2022-12-04T06:58:17;1.20;99.90
32522;DHT22;18963;51.504;5.316;2022-12-04T07:00:43;1.20;99.90
32522;DHT22;18963;51.504;5.316;2022-12-04T07:03:08;1.20;99.90
32522;DHT22;18963;51.504;5.316;2022-12-04T07:05:33;1.20;99.90
32522;DHT22;18963;51.504;5.316;2022-12-04T07:07:59;1.20;99.90
32522;DHT22;18963;51.504;5.316;2022-12-04T07:10:24;1.20;99.90
32522;DHT22;18963;51.504;5.316;2022-12-04T07:12:50;1.20;99.90
32522;DHT22;18963;51.504;5.316;2022-12-04T07:15:15;1.20;99.90
32522;DHT22;18963;51.504;5.316;2022-12-04T07:17:41;1.20;99.90
32522;DHT22;18963;51.504;5.316;2022-12-04T07:20:06;1.20;99.90
32522;DHT22;18963;51.504;5.316;2022-12-04T07:22:32;1.20;99.90
32522;DHT22;18963;51.504;5.316;2022-12-04T07:24:57;1.20;99.90
32522;DHT22;18963;51.504;5.316;2022-12-04T07:27:23;1.20;99.90
32522;DHT22;18963;51.504;5.316;2022-12-04T07:29:50;1.20;99.90
32522;DHT22;18963;51.504;5.316;2022-12-04T07:32:15;1.30;99.90
32522;DHT22;18963;51.504;5.316;2022-12-04T07:34:41;1.30;99.90
32522;DHT22;18963;51.504;5.316;2022-12-04T07:37:06;1.30;99.90
32522;DHT22;18963;51.504;5.316;2022-12-04T07:39:32;1.30;99.90
32522;DHT22;18963;51.504;5.316;2022-12-04T07:41:57;1.20;99.90
32522;DHT22;18963;51.504;5.316;2022-12-04T07:44:23;1.30;99.90
32522;DHT22;18963;51.504;5.316;2022-12-04T07:46:48;1.30;99.90
32522;DHT22;18963;51.504;5.316;2022-12-04T07:49:13;1.30;99.90
32522;DHT22;18963;51.504;5.316;2022-12-04T07:51:39;1.30;99.90
32522;DHT22;18963;51.504;5.316;2022-12-04T07:54:04;1.30;99.90
32522;DHT22;18963;51.504;5.316;2022-12-04T07:56:31;1.30;99.90
32522;DHT22;18963;51.504;5.316;2022-12-04T07:58:57;1.30;99.90
32522;DHT22;18963;51.504;5.316;2022-12-04T08:01:24;1.30;99.90
32522;DHT22;18963;51.504;5.316;2022-12-04T08:03:51;1.30;99.90
32522;DHT22;18963;51.504;5.316;2022-12-04T08:06:17;1.30;99.90
32522;DHT22;18963;51.504;5.316;2022-12-04T08:08:43;1.30;99.90
32522;DHT22;18963;51.504;5.316;2022-12-04T08:11:10;1.30;99.90
32522;DHT22;18963;51.504;5.316;2022-12-04T08:13:35;1.30;99.90
32522;DHT22;18963;51.504;5.316;2022-12-04T08:16:01;1.40;99.90
32522;DHT22;18963;51.504;5.316;2022-12-04T08:18:27;1.40;99.90
32522;DHT22;18963;51.504;5.316;2022-12-04T08:20:53;1.40;99.90
32522;DHT22;18963;51.504;5.316;2022-12-04T08:23:18;1.40;99.90
32522;DHT22;18963;51.504;5.316;2022-12-04T08:25:44;1.40;99.90
32522;DHT22;18963;51.504;5.316;2022-12-04T08:28:09;1.40;99.90
32522;DHT22;18963;51.504;5.316;2022-12-04T08:30:36;1.50;99.90
32522;DHT22;18963;51.504;5.316;2022-12-04T08:33:01;1.50;99.90
32522;DHT22;18963;51.504;5.316;2022-12-04T08:35:27;1.40;99.90
32522;DHT22;18963;51.504;5.316;2022-12-04T08:37:52;1.50;99.90
32522;DHT22;18963;51.504;5.316;2022-12-04T08:40:18;1.50;99.90
32522;DHT22;18963;51.504;5.316;2022-12-04T08:42:43;1.50;99.90
32522;DHT22;18963;51.504;5.316;2022-12-04T08:45:09;1.50;99.90
32522;DHT22;18963;51.504;5.316;2022-12-04T08:47:34;1.50;99.90
32522;DHT22;18963;51.504;5.316;2022-12-04T08:50:00;1.60;99.90
32522;DHT22;18963;51.504;5.316;2022-12-04T08:52:25;1.50;99.90
32522;DHT22;18963;51.504;5.316;2022-12-04T08:54:51;1.60;99.90
32522;DHT22;18963;51.504;5.316;2022-12-04T08:57:16;1.60;99.90
32522;DHT22;18963;51.504;5.316;2022-12-04T08:59:42;1.60;99.90
32522;DHT22;18963;51.504;5.316;2022-12-04T09:02:09;1.60;99.90
32522;DHT22;18963;51.504;5.316;2022-12-04T09:04:34;1.70;99.90
32522;DHT22;18963;51.504;5.316;2022-12-04T09:07:00;1.70;99.90
32522;DHT22;18963;51.504;5.316;2022-12-04T09:09:25;1.70;99.90
32522;DHT22;18963;51.504;5.316;2022-12-04T09:11:51;1.70;99.90
32522;DHT22;18963;51.504;5.316;2022-12-04T09:14:16;1.70;99.90
32522;DHT22;18963;51.504;5.316;2022-12-04T09:16:43;1.70;99.90
32522;DHT22;18963;51.504;5.316;2022-12-04T09:19:10;1.80;99.90
32522;DHT22;18963;51.504;5.316;2022-12-04T09:21:39;1.80;99.90
32522;DHT22;18963;51.504;5.316;2022-12-04T09:24:07;1.80;99.90
32522;DHT22;18963;51.504;5.316;2022-12-04T09:26:33;1.80;99.90
32522;DHT22;18963;51.504;5.316;2022-12-04T09:28:59;1.80;99.90
32522;DHT22;18963;51.504;5.316;2022-12-04T09:31:25;1.90;99.90
32522;DHT22;18963;51.504;5.316;2022-12-04T09:33:50;1.90;99.90
32522;DHT22;18963;51.504;5.316;2022-12-04T09:38:46;1.90;99.90
32522;DHT22;18963;51.504;5.316;2022-12-04T09:44:09;2.00;99.90
32522;DHT22;18963;51.504;5.316;2022-12-04T09:49:02;2.10;99.90
32522;DHT22;18963;51.504;5.316;2022-12-04T09:51:28;2.00;99.90
32522;DHT22;18963;51.504;5.316;2022-12-04T09:53:58;2.00;99.90
32522;DHT22;18963;51.504;5.316;2022-12-04T09:56:26;2.10;99.90
32522;DHT22;18963;51.504;5.316;2022-12-04T09:58:57;2.10;99.90
32522;DHT22;18963;51.504;5.316;2022-12-04T10:01:26;2.10;99.90
32522;DHT22;18963;51.504;5.316;2022-12-04T10:03:53;2.10;99.90
32522;DHT22;18963;51.504;5.316;2022-12-04T10:06:21;2.00;99.90
32522;DHT22;18963;51.504;5.316;2022-12-04T10:09:32;2.10;99.90
32522;DHT22;18963;51.504;5.316;2022-12-04T10:14:23;2.00;99.90
32522;DHT22;18963;51.504;5.316;2022-12-04T10:16:59;1.90;99.90
32522;DHT22;18963;51.504;5.316;2022-12-04T10:19:35;1.90;99.90
32522;DHT22;18963;51.504;5.316;2022-12-04T10:24:45;1.90;99.90
32522;DHT22;18963;51.504;5.316;2022-12-04T10:27:28;1.80;99.90
32522;DHT22;18963;51.504;5.316;2022-12-04T10:29:56;1.80;99.90
32522;DHT22;18963;51.504;5.316;2022-12-04T10:32:26;1.70;99.90
32522;DHT22;18963;51.504;5.316;2022-12-04T10:34:53;1.80;99.90
32522;DHT22;18963;51.504;5.316;2022-12-04T10:37:20;1.70;99.90
32522;DHT22;18963;51.504;5.316;2022-12-04T10:44:40;1.70;99.90
32522;DHT22;18963;51.504;5.316;2022-12-04T10:47:07;1.70;99.90
32522;DHT22;18963;51.504;5.316;2022-12-04T10:49:35;1.70;99.90
32522;DHT22;18963;51.504;5.316;2022-12-04T10:52:02;1.70;99.90
32522;DHT22;18963;51.504;5.316;2022-12-04T10:54:32;1.70;99.90
32522;DHT22;18963;51.504;5.316;2022-12-04T10:56:58;1.70;99.90
32522;DHT22;18963;51.504;5.316;2022-12-04T10:59:25;1.70;99.90
32522;DHT22;18963;51.504;5.316;2022-12-04T11:01:51;1.70;99.90
32522;DHT22;18963;51.504;5.316;2022-12-04T11:04:21;1.70;99.90
32522;DHT22;18963;51.504;5.316;2022-12-04T11:06:48;1.70;99.90
32522;DHT22;18963;51.504;5.316;2022-12-04T11:09:18;1.70;99.90
32522;DHT22;18963;51.504;5.316;2022-12-04T11:11:46;1.70;99.90
32522;DHT22;18963;51.504;5.316;2022-12-04T11:14:13;1.70;99.90
32522;DHT22;18963;51.504;5.316;2022-12-04T11:16:40;1.70;99.90
32522;DHT22;18963;51.504;5.316;2022-12-04T11:21:43;1.70;99.90
32522;DHT22;18963;51.504;5.316;2022-12-04T11:24:15;1.70;99.90
32522;DHT22;18963;51.504;5.316;2022-12-04T11:26:42;1.70;99.90
32522;DHT22;18963;51.504;5.316;2022-12-04T11:29:10;1.70;99.90
32522;DHT22;18963;51.504;5.316;2022-12-04T11:31:38;1.70;99.90
32522;DHT22;18963;51.504;5.316;2022-12-04T11:34:05;1.70;99.90
32522;DHT22;18963;51.504;5.316;2022-12-04T11:41:32;1.70;99.90
32522;DHT22;18963;51.504;5.316;2022-12-04T11:43:58;1.70;99.90
32522;DHT22;18963;51.504;5.316;2022-12-04T11:46:25;1.70;99.90
32522;DHT22;18963;51.504;5.316;2022-12-04T11:48:51;1.70;99.90
32522;DHT22;18963;51.504;5.316;2022-12-04T11:51:27;1.70;99.90
32522;DHT22;18963;51.504;5.316;2022-12-04T12:06:51;1.70;99.90
32522;DHT22;18963;51.504;5.316;2022-12-04T12:10:03;1.80;99.90
32522;DHT22;18963;51.504;5.316;2022-12-04T12:12:09;1.80;99.90
32522;DHT22;18963;51.504;5.316;2022-12-04T12:22:46;1.70;99.90
32522;DHT22;18963;51.504;5.316;2022-12-04T12:24:50;1.80;99.90
32522;DHT22;18963;51.504;5.316;2022-12-04T12:32:31;1.80;99.90
32522;DHT22;18963;51.504;5.316;2022-12-04T12:35:04;1.80;99.90
32522;DHT22;18963;51.504;5.316;2022-12-04T12:37:43;1.80;99.90
32522;DHT22;18963;51.504;5.316;2022-12-04T12:40:11;1.80;99.90
32522;DHT22;18963;51.504;5.316;2022-12-04T12:42:40;1.70;99.90
32522;DHT22;18963;51.504;5.316;2022-12-04T12:47:53;1.70;99.90
32522;DHT22;18963;51.504;5.316;2022-12-04T12:50:21;1.70;99.90
32522;DHT22;18963;51.504;5.316;2022-12-04T12:52:57;1.70;99.90
32522;DHT22;18963;51.504;5.316;2022-12-04T12:55:29;1.70;99.90
32522;DHT22;18963;51.504;5.316;2022-12-04T12:57:58;1.70;99.90
32522;DHT22;18963;51.504;5.316;2022-12-04T13:00:25;1.70;99.90
32522;DHT22;18963;51.504;5.316;2022-12-04T13:02:59;1.70;99.90
32522;DHT22;18963;51.504;5.316;2022-12-04T13:05:29;1.70;99.90
32522;DHT22;18963;51.504;5.316;2022-12-04T13:08:15;1.70;99.90
32522;DHT22;18963;51.504;5.316;2022-12-04T13:10:43;1.70;99.90
32522;DHT22;18963;51.504;5.316;2022-12-04T13:13:21;1.70;99.90
32522;DHT22;18963;51.504;5.316;2022-12-04T13:15:49;1.80;99.90
32522;DHT22;18963;51.504;5.316;2022-12-04T13:18:21;1.80;99.90
32522;DHT22;18963;51.504;5.316;2022-12-04T13:20:51;1.70;99.90
32522;DHT22;18963;51.504;5.316;2022-12-04T13:26:05;1.70;99.90
32522;DHT22;18963;51.504;5.316;2022-12-04T13:28:48;1.80;99.90
32522;DHT22;18963;51.504;5.316;2022-12-04T13:31:32;1.80;99.90
32522;DHT22;18963;51.504;5.316;2022-12-04T13:39:34;1.80;99.90
32522;DHT22;18963;51.504;5.316;2022-12-04T13:42:04;1.80;99.90
32522;DHT22;18963;51.504;5.316;2022-12-04T13:44:30;1.80;99.90
32522;DHT22;18963;51.504;5.316;2022-12-04T13:46:58;1.90;99.90
32522;DHT22;18963;51.504;5.316;2022-12-04T13:49:34;1.90;99.90
32522;DHT22;18963;51.504;5.316;2022-12-04T13:52:02;1.90;99.90
32522;DHT22;18963;51.504;5.316;2022-12-04T13:54:29;1.90;99.90
32522;DHT22;18963;51.504;5.316;2022-12-04T13:56:57;1.80;99.90
32522;DHT22;18963;51.504;5.316;2022-12-04T13:59:35;1.80;99.90
32522;DHT22;18963;51.504;5.316;2022-12-04T14:02:02;1.80;99.90
32522;DHT22;18963;51.504;5.316;2022-12-04T14:04:45;1.80;99.90
32522;DHT22;18963;51.504;5.316;2022-12-04T14:07:21;1.90;99.90
32522;DHT22;18963;51.504;5.316;2022-12-04T14:09:48;1.90;99.90
32522;DHT22;18963;51.504;5.316;2022-12-04T14:12:17;1.90;99.90
32522;DHT22;18963;51.504;5.316;2022-12-04T14:14:43;1.90;99.90
32522;DHT22;18963;51.504;5.316;2022-12-04T14:17:16;1.90;99.90
32522;DHT22;18963;51.504;5.316;2022-12-04T14:19:42;1.90;99.90
32522;DHT22;18963;51.504;5.316;2022-12-04T14:22:29;1.90;99.90
32522;DHT22;18963;51.504;5.316;2022-12-04T14:25:06;1.90;99.90
32522;DHT22;18963;51.504;5.316;2022-12-04T14:32:42;2.00;99.90
32522;DHT22;18963;51.504;5.316;2022-12-04T14:35:12;1.90;99.90
32522;DHT22;18963;51.504;5.316;2022-12-04T14:37:39;1.90;99.90
32522;DHT22;18963;51.504;5.316;2022-12-04T14:40:15;1.90;99.90
32522;DHT22;18963;51.504;5.316;2022-12-04T14:42:41;2.00;99.90
32522;DHT22;18963;51.504;5.316;2022-12-04T14:47:55;1.90;99.90
32522;DHT22;18963;51.504;5.316;2022-12-04T14:50:33;1.90;99.90
32522;DHT22;18963;51.504;5.316;2022-12-04T14:58:22;2.00;99.90
32522;DHT22;18963;51.504;5.316;2022-12-04T15:00:54;2.00;99.90
32522;DHT22;18963;51.504;5.316;2022-12-04T15:03:20;2.00;99.90
32522;DHT22;18963;51.504;5.316;2022-12-04T15:05:46;1.90;99.90
32522;DHT22;18963;51.504;5.316;2022-12-04T15:08:12;2.00;99.90
32522;DHT22;18963;51.504;5.316;2022-12-04T15:10:38;2.00;99.90
32522;DHT22;18963;51.504;5.316;2022-12-04T15:13:26;2.00;99.90
32522;DHT22;18963;51.504;5.316;2022-12-04T15:15:52;2.00;99.90
32522;DHT22;18963;51.504;5.316;2022-12-04T15:18:17;2.00;99.90
32522;DHT22;18963;51.504;5.316;2022-12-04T15:23:25;2.00;99.90
32522;DHT22;18963;51.504;5.316;2022-12-04T15:25:52;2.00;99.90
32522;DHT22;18963;51.504;5.316;2022-12-04T15:28:23;2.00;99.90
32522;DHT22;18963;51.504;5.316;2022-12-04T15:30:50;2.10;99.90
32522;DHT22;18963;51.504;5.316;2022-12-04T15:33:26;2.10;99.90
32522;DHT22;18963;51.504;5.316;2022-12-04T15:35:54;2.10;99.90
32522;DHT22;18963;51.504;5.316;2022-12-04T15:38:21;2.10;99.90
32522;DHT22;18963;51.504;5.316;2022-12-04T15:40:51;2.10;99.90
32522;DHT22;18963;51.504;5.316;2022-12-04T15:43:20;2.10;99.90
32522;DHT22;18963;51.504;5.316;2022-12-04T15:45:46;2.10;99.90
32522;DHT22;18963;51.504;5.316;2022-12-04T15:48:21;2.10;99.90
32522;DHT22;18963;51.504;5.316;2022-12-04T15:50:53;2.10;99.90
32522;DHT22;18963;51.504;5.316;2022-12-04T15:53:19;2.10;99.90
32522;DHT22;18963;51.504;5.316;2022-12-04T15:55:52;2.10;99.90
32522;DHT22;18963;51.504;5.316;2022-12-04T15:58:20;2.10;99.90
32522;DHT22;18963;51.504;5.316;2022-12-04T16:00:46;2.10;99.90
32522;DHT22;18963;51.504;5.316;2022-12-04T16:03:20;2.10;99.90
32522;DHT22;18963;51.504;5.316;2022-12-04T16:05:47;2.10;99.90
32522;DHT22;18963;51.504;5.316;2022-12-04T16:08:28;2.10;99.90
32522;DHT22;18963;51.504;5.316;2022-12-04T16:11:03;2.10;99.90
32522;DHT22;18963;51.504;5.316;2022-12-04T16:13:33;2.20;99.90
32522;DHT22;18963;51.504;5.316;2022-12-04T16:15:58;2.20;99.90
32522;DHT22;18963;51.504;5.316;2022-12-04T16:18:24;2.20;99.90
32522;DHT22;18963;51.504;5.316;2022-12-04T16:20:50;2.20;99.90
32522;DHT22;18963;51.504;5.316;2022-12-04T16:23:15;2.10;99.90
32522;DHT22;18963;51.504;5.316;2022-12-04T16:25:41;2.20;99.90
32522;DHT22;18963;51.504;5.316;2022-12-04T17:40:29;2.30;99.90
32522;DHT22;18963;51.504;5.316;2022-12-04T17:42:54;2.30;99.90
32522;DHT22;18963;51.504;5.316;2022-12-04T17:45:19;2.30;99.90
32522;DHT22;18963;51.504;5.316;2022-12-04T17:47:45;2.30;99.90
32522;DHT22;18963;51.504;5.316;2022-12-04T17:50:11;2.30;99.90
32522;DHT22;18963;51.504;5.316;2022-12-04T17:52:36;2.40;99.90
32522;DHT22;18963;51.504;5.316;2022-12-04T17:55:02;2.30;99.90
32522;DHT22;18963;51.504;5.316;2022-12-04T17:57:27;2.30;99.90
32522;DHT22;18963;51.504;5.316;2022-12-04T17:59:53;2.30;99.90
32522;DHT22;18963;51.504;5.316;2022-12-04T18:02:18;2.30;99.90
32522;DHT22;18963;51.504;5.316;2022-12-04T18:04:44;2.30;99.90
32522;DHT22;18963;51.504;5.316;2022-12-04T18:07:09;2.40;99.90
32522;DHT22;18963;51.504;5.316;2022-12-04T18:09:35;2.30;99.90
32522;DHT22;18963;51.504;5.316;2022-12-04T18:12:00;2.30;99.90
32522;DHT22;18963;51.504;5.316;2022-12-04T18:14:27;2.30;99.90
32522;DHT22;18963;51.504;5.316;2022-12-04T18:16:53;2.40;99.90
32522;DHT22;18963;51.504;5.316;2022-12-04T18:19:20;2.40;99.90
32522;DHT22;18963;51.504;5.316;2022-12-04T18:21:45;2.30;99.90
32522;DHT22;18963;51.504;5.316;2022-12-04T18:24:11;2.40;99.90
32522;DHT22;18963;51.504;5.316;2022-12-04T18:26:38;2.30;99.90
32522;DHT22;18963;51.504;5.316;2022-12-04T18:29:04;2.30;99.90
32522;DHT22;18963;51.504;5.316;2022-12-04T18:31:30;2.30;99.90
32522;DHT22;18963;51.504;5.316;2022-12-04T18:33:56;2.30;99.90
32522;DHT22;18963;51.504;5.316;2022-12-04T18:36:22;2.30;99.90
32522;DHT22;18963;51.504;5.316;2022-12-04T18:38:52;2.30;99.90
32522;DHT22;18963;51.504;5.316;2022-12-04T18:41:17;2.30;99.90
32522;DHT22;18963;51.504;5.316;2022-12-04T18:43:43;2.30;99.90
32522;DHT22;18963;51.504;5.316;2022-12-04T18:46:11;2.30;99.90
32522;DHT22;18963;51.504;5.316;2022-12-04T18:48:37;2.30;99.90
32522;DHT22;18963;51.504;5.316;2022-12-04T18:53:47;2.30;99.90
32522;DHT22;18963;51.504;5.316;2022-12-04T18:56:13;2.30;99.90
32522;DHT22;18963;51.504;5.316;2022-12-04T18:58:39;2.30;99.90
32522;DHT22;18963;51.504;5.316;2022-12-04T19:01:05;2.30;99.90